createdAt,value
2019-01-03T00:03:06.672Z,11.17
2019-01-03T00:05:58.566Z,13.90
2019-01-03T00:08:58.837Z,11.67
2019-01-03T00:12:12.656Z,12.03
2019-01-03T00:15:07.788Z,11.50
2019-01-03T00:21:17.094Z,9.20
2019-01-03T00:24:09.865Z,10.37
2019-01-03T00:27:10.962Z,9.77
2019-01-03T00:30:28.826Z,12.73
2019-01-03T00:33:57.854Z,8.97
2019-01-03T00:36:51.158Z,11.87
2019-01-03T00:39:37.147Z,10.57
2019-01-03T00:42:26.037Z,15.40
2019-01-03T00:45:47.058Z,10.90
2019-01-03T00:48:35.428Z,11.23
2019-01-03T00:51:30.099Z,10.40
2019-01-03T00:54:23.294Z,11.07
2019-01-03T00:57:31.506Z,12.93
2019-01-03T01:00:20.063Z,10.03
2019-01-03T01:03:18.478Z,9.70
2019-01-03T01:05:59.103Z,12.93
2019-01-03T01:08:53.811Z,16.77
2019-01-03T01:11:36.311Z,18.03
2019-01-03T01:14:46.134Z,10.40
2019-01-03T01:17:59.368Z,9.67
2019-01-03T01:21:01.770Z,13.40
2019-01-03T01:23:52.382Z,9.40
2019-01-03T01:26:42.309Z,10.13
2019-01-03T01:29:38.879Z,14.03
2019-01-03T01:32:43.494Z,16.03
2019-01-03T01:35:32.011Z,15.23
2019-01-03T01:38:41.178Z,12.97
2019-01-03T01:41:43.352Z,14.20
2019-01-03T01:44:41.385Z,12.87
2019-01-03T01:47:28.978Z,12.57
2019-01-03T01:50:17.200Z,10.77
2019-01-03T01:53:09.805Z,11.20
2019-01-03T01:56:06.057Z,14.43
2019-01-03T01:59:25.897Z,12.07
2019-01-03T02:05:46.890Z,11.23
2019-01-03T02:08:36.105Z,8.67
2019-01-03T02:11:40.995Z,13.33
2019-01-03T02:15:08.652Z,10.23
2019-01-03T02:18:15.790Z,9.07
2019-01-03T02:21:23.193Z,10.50
2019-01-03T02:27:40.317Z,10.80
2019-01-03T02:30:40.642Z,14.30
2019-01-03T02:33:45.507Z,12.03
2019-01-03T02:36:39.775Z,9.77
2019-01-03T02:39:41.177Z,9.00
2019-01-03T02:42:38.582Z,17.10
2019-01-03T02:45:34.830Z,14.47
2019-01-03T02:48:41.131Z,9.40
2019-01-03T02:51:38.473Z,12.30
2019-01-03T02:54:41.082Z,13.27
2019-01-03T02:57:43.626Z,12.90
2019-01-03T03:00:27.157Z,11.88
2019-01-03T03:03:21.212Z,9.57
2019-01-03T03:06:20.482Z,8.47
2019-01-03T03:09:09.872Z,13.00
2019-01-03T03:12:09.382Z,9.40
2019-01-03T03:15:21.529Z,13.20
2019-01-03T03:18:23.937Z,10.60
2019-01-03T03:21:13.112Z,10.50
2019-01-03T03:24:16.775Z,10.23
2019-01-03T03:27:20.950Z,17.33
2019-01-03T03:30:14.982Z,10.73
2019-01-03T03:33:09.418Z,13.77
2019-01-03T03:36:03.660Z,10.30
2019-01-03T03:39:09.830Z,10.50
2019-01-03T03:42:12.019Z,10.23
2019-01-03T03:45:12.769Z,13.00
2019-01-03T03:48:30.944Z,11.93
2019-01-03T03:51:19.950Z,10.40
2019-01-03T03:54:10.122Z,12.00
2019-01-03T03:57:05.756Z,8.97
2019-01-03T03:59:56.338Z,14.13
2019-01-03T04:02:54.323Z,9.97
2019-01-03T04:06:08.330Z,12.33
2019-01-03T04:09:07.346Z,11.77
2019-01-03T04:12:14.070Z,10.83
2019-01-03T04:15:24.502Z,11.73
2019-01-03T04:18:36.488Z,10.27
2019-01-03T04:21:35.449Z,11.73
2019-01-03T04:24:17.311Z,11.57
2019-01-03T04:27:31.410Z,13.73
2019-01-03T04:33:58.631Z,11.17
2019-01-03T04:36:54.531Z,10.60
2019-01-03T04:43:37.090Z,6.40
2019-01-03T04:46:41.824Z,12.30
2019-01-03T04:49:27.635Z,18.10
2019-01-03T04:52:26.574Z,7.30
2019-01-03T04:55:18.439Z,6.67
2019-01-03T04:58:18.528Z,7.30
2019-01-03T05:01:22.250Z,8.07
2019-01-03T05:04:11.661Z,9.60
2019-01-03T05:07:07.674Z,14.03
2019-01-03T05:09:55.758Z,9.43
2019-01-03T05:13:04.441Z,9.70
2019-01-03T05:15:59.700Z,10.27
2019-01-03T05:19:02.887Z,8.27
2019-01-03T05:22:28.410Z,9.27
2019-01-03T05:25:11.943Z,7.37
2019-01-03T05:28:04.216Z,7.80
2019-01-03T05:30:50.243Z,8.30
2019-01-03T05:33:48.578Z,10.60
2019-01-03T05:36:30.488Z,8.70
2019-01-03T05:39:22.412Z,9.47
2019-01-03T05:42:28.043Z,11.13
2019-01-03T05:45:23.357Z,9.63
2019-01-03T05:48:23.967Z,7.70
2019-01-03T05:51:30.152Z,8.03
2019-01-03T05:54:45.790Z,9.50
2019-01-03T05:57:56.832Z,8.80
2019-01-03T06:00:58.176Z,12.37
2019-01-03T06:04:51.749Z,12.30
2019-01-03T06:15:28.443Z,12.65
2019-01-03T06:18:59.215Z,9.70
2019-01-03T06:22:18.340Z,11.37
2019-01-03T06:25:25.231Z,13.03
2019-01-03T06:28:36.029Z,15.67
2019-01-03T06:31:35.864Z,12.13
2019-01-03T06:38:04.455Z,10.93
2019-01-03T06:40:58.973Z,14.30
2019-01-03T06:43:57.786Z,13.80
2019-01-03T06:46:56.668Z,13.57
2019-01-03T06:49:57.977Z,12.27
2019-01-03T06:56:19.362Z,10.63
2019-01-03T07:03:17.059Z,13.67
2019-01-03T07:12:33.118Z,12.53
2019-01-03T07:20:13.156Z,13.60
2019-01-03T07:23:14.482Z,15.83
2019-01-03T07:26:39.848Z,12.20
2019-01-03T07:29:43.348Z,13.15
2019-01-03T07:32:44.446Z,14.83
2019-01-03T07:36:05.620Z,13.80
2019-01-03T07:39:00.932Z,16.07
2019-01-03T07:41:48.736Z,14.53
2019-01-03T07:44:36.436Z,13.23
2019-01-03T07:47:24.700Z,13.20
2019-01-03T07:50:13.486Z,16.40
2019-01-03T07:53:01.750Z,12.37
2019-01-03T07:56:03.588Z,17.00
2019-01-03T07:58:51.540Z,15.40
2019-01-03T08:01:49.811Z,12.43
2019-01-03T08:04:37.629Z,12.00
2019-01-03T08:07:25.820Z,12.00
2019-01-03T08:10:30.208Z,12.57
2019-01-03T08:13:17.689Z,12.03
2019-01-03T08:16:03.871Z,14.73
2019-01-03T08:18:56.174Z,17.10
2019-01-03T08:21:36.904Z,11.08
2019-01-03T08:24:20.075Z,10.53
2019-01-03T08:27:07.692Z,11.20
2019-01-03T08:30:18.119Z,10.47
2019-01-03T08:33:10.359Z,11.53
2019-01-03T08:35:56.630Z,10.13
2019-01-03T08:38:45.435Z,13.90
2019-01-03T08:41:50.526Z,8.70
2019-01-03T08:44:55.554Z,11.27
2019-01-03T08:47:43.581Z,10.70
2019-01-03T08:50:32.347Z,8.93
2019-01-03T08:53:25.422Z,12.70
2019-01-03T08:56:10.545Z,14.07
2019-01-03T08:59:08.932Z,16.37
2019-01-03T09:01:57.842Z,10.73
2019-01-03T09:04:45.595Z,12.80
2019-01-03T09:07:43.401Z,12.73
2019-01-03T09:10:30.160Z,10.53
2019-01-03T09:13:18.479Z,12.33
2019-01-03T09:16:01.386Z,30.63
2019-01-03T09:18:54.995Z,32.07
2019-01-03T09:21:44.539Z,10.83
2019-01-03T09:24:32.966Z,12.93
2019-01-03T09:27:20.968Z,12.53
2019-01-03T09:30:19.011Z,10.37
2019-01-03T09:33:11.552Z,8.63
2019-01-03T09:41:03.498Z,10.63
2019-01-03T09:47:22.690Z,10.23
2019-01-03T09:49:53.469Z,11.03
2019-01-03T09:52:23.384Z,13.83
2019-01-03T09:55:01.005Z,10.50
2019-01-03T09:57:39.972Z,11.37
2019-01-03T10:00:11.339Z,7.53
2019-01-03T10:02:41.467Z,9.00
2019-01-03T10:05:12.217Z,7.33
2019-01-03T10:07:43.790Z,9.30
2019-01-03T10:10:15.692Z,14.20
2019-01-03T10:12:46.659Z,13.10
2019-01-03T10:15:16.668Z,9.40
2019-01-03T10:17:46.426Z,7.60
2019-01-03T10:20:28.155Z,11.23
2019-01-03T10:25:43.446Z,11.50
2019-01-03T10:28:19.552Z,17.10
2019-01-03T10:30:50.345Z,10.88
2019-01-03T10:33:20.750Z,16.57
2019-01-03T10:35:52.744Z,13.80
2019-01-03T10:38:25.390Z,15.97
2019-01-03T10:40:56.196Z,12.03
2019-01-03T10:43:27.317Z,10.73
2019-01-03T10:45:58.694Z,13.30
2019-01-03T10:48:29.226Z,14.30
2019-01-03T10:50:59.629Z,9.63
2019-01-03T10:53:30.312Z,10.90
2019-01-03T10:56:00.754Z,17.50
2019-01-03T10:58:31.007Z,11.90
2019-01-03T11:01:03.263Z,9.65
2019-01-03T11:03:33.772Z,10.57
2019-01-03T11:06:03.786Z,18.80
2019-01-03T11:08:33.798Z,11.60
2019-01-03T11:11:04.389Z,9.37
2019-01-03T11:17:10.855Z,13.50
2019-01-03T11:19:45.540Z,17.15
2019-01-03T11:22:18.859Z,13.57
2019-01-03T11:24:57.102Z,16.93
2019-01-03T11:27:30.486Z,11.83
2019-01-03T11:30:00.808Z,10.27
2019-01-03T11:32:31.307Z,12.20
2019-01-03T11:35:02.222Z,10.90
2019-01-03T11:37:32.272Z,14.90
2019-01-03T11:40:03.333Z,10.10
2019-01-03T11:42:33.300Z,9.90
2019-01-03T11:45:42.833Z,10.60
2019-01-03T11:52:24.260Z,12.80
2019-01-03T11:54:48.647Z,12.77
2019-01-03T11:57:23.234Z,13.83
2019-01-03T12:00:17.361Z,11.77
2019-01-03T12:02:53.114Z,10.53
2019-01-03T12:08:14.318Z,16.23
2019-01-03T12:11:27.839Z,15.33
2019-01-03T12:14:08.465Z,16.63
2019-01-03T12:17:09.164Z,12.20
2019-01-03T12:20:03.996Z,11.90
2019-01-03T12:30:28.640Z,16.52
2019-01-03T12:33:42.154Z,7.13
2019-01-03T12:37:05.477Z,11.37
2019-01-03T12:44:06.778Z,9.03
2019-01-03T12:50:12.856Z,18.10
2019-01-03T12:53:24.170Z,13.30
2019-01-03T12:55:55.108Z,14.13
2019-01-03T13:05:07.888Z,10.63
2019-01-03T13:08:19.106Z,9.47
2019-01-03T13:10:49.841Z,9.83
2019-01-03T13:13:26.267Z,11.77
2019-01-03T13:16:14.514Z,10.37
2019-01-03T13:19:20.592Z,11.43
2019-01-03T13:21:52.105Z,8.07
2019-01-03T13:24:38.900Z,13.60
2019-01-03T13:34:07.777Z,17.13
2019-01-03T13:36:41.984Z,13.70
2019-01-03T13:39:13.212Z,11.33
2019-01-03T13:41:48.051Z,13.10
2019-01-03T13:44:48.104Z,15.90
2019-01-03T13:47:22.787Z,17.20
2019-01-03T13:50:00.710Z,11.90
2019-01-03T13:52:35.987Z,10.27
2019-01-03T13:55:29.196Z,15.20
2019-01-03T13:57:59.473Z,12.13
2019-01-03T14:00:29.601Z,12.77
2019-01-03T14:02:59.740Z,12.67
2019-01-03T14:05:30.964Z,11.80
2019-01-03T14:08:02.672Z,14.40
2019-01-03T14:10:33.290Z,15.27
2019-01-03T14:13:06.418Z,23.23
2019-01-03T14:15:42.609Z,14.90
2019-01-03T14:18:13.321Z,12.30
2019-01-03T14:20:43.457Z,16.13
2019-01-03T14:23:15.914Z,10.47
2019-01-03T14:25:46.566Z,13.80
2019-01-03T14:28:17.123Z,11.80
2019-01-03T14:30:46.920Z,13.07
2019-01-03T14:33:16.827Z,12.53
2019-01-03T14:35:46.724Z,13.03
2019-01-03T14:38:16.234Z,13.97
2019-01-03T14:40:47.482Z,13.80
2019-01-03T14:43:17.754Z,12.30
2019-01-03T14:45:47.557Z,15.70
2019-01-03T14:48:17.388Z,16.57
2019-01-03T14:50:47.160Z,15.40
2019-01-03T14:53:17.429Z,21.67
2019-01-03T14:55:47.277Z,15.40
2019-01-03T14:58:16.961Z,14.07
2019-01-03T15:00:46.558Z,15.93
2019-01-03T15:03:16.801Z,15.70
2019-01-03T15:05:46.839Z,14.73
2019-01-03T15:08:23.405Z,23.60
2019-01-03T15:10:54.265Z,14.73
2019-01-03T15:13:24.798Z,17.50
2019-01-03T15:15:55.607Z,13.63
2019-01-03T15:18:28.711Z,13.77
2019-01-03T15:20:58.654Z,12.83
2019-01-03T15:23:28.336Z,12.60
2019-01-03T15:25:58.834Z,13.33
2019-01-03T15:28:30.476Z,13.57
2019-01-03T15:31:00.568Z,20.20
2019-01-03T15:33:33.425Z,22.47
2019-01-03T15:36:03.381Z,19.13
2019-01-03T15:42:12.441Z,20.12
2019-01-03T15:45:03.385Z,17.47
2019-01-03T15:47:54.703Z,17.30
2019-01-03T15:50:27.111Z,17.03
2019-01-03T15:53:00.294Z,19.10
2019-01-03T15:55:30.651Z,19.93
2019-01-03T15:58:02.049Z,18.23
2019-01-03T16:00:42.765Z,19.40
2019-01-03T16:03:13.653Z,15.43
2019-01-03T16:06:11.937Z,18.33
2019-01-03T16:08:50.102Z,16.57
2019-01-03T16:14:02.205Z,17.23
2019-01-03T16:16:33.589Z,20.87
2019-01-03T16:19:08.430Z,16.77
2019-01-03T16:21:40.428Z,20.77
2019-01-03T16:24:18.027Z,20.03
2019-01-03T16:26:58.642Z,17.07
2019-01-03T16:29:30.144Z,19.00
2019-01-03T16:32:02.619Z,17.60
2019-01-03T16:34:58.884Z,16.07
2019-01-03T16:37:29.214Z,19.67
2019-01-03T16:40:07.917Z,21.03
2019-01-03T16:42:55.333Z,14.97
2019-01-03T16:45:28.853Z,18.53
2019-01-03T16:48:08.953Z,20.30
2019-01-03T16:50:39.823Z,16.20
2019-01-03T16:53:15.531Z,17.30
2019-01-03T16:56:16.116Z,22.00
2019-01-03T16:58:52.737Z,21.60
2019-01-03T17:01:23.200Z,20.80
2019-01-03T17:03:54.579Z,37.05
2019-01-03T17:06:25.065Z,35.40
2019-01-03T17:08:55.501Z,22.07
2019-01-03T17:11:25.980Z,35.67
2019-01-03T17:13:57.129Z,22.00
2019-01-03T17:16:27.169Z,19.70
2019-01-03T17:18:57.298Z,49.20
2019-01-03T17:21:27.111Z,45.67
2019-01-03T17:23:57.111Z,41.33
2019-01-03T17:26:26.885Z,94.87
2019-01-03T17:28:57.280Z,60.07
2019-01-03T17:31:27.631Z,41.80
2019-01-03T17:33:57.224Z,58.50
2019-01-03T17:36:27.035Z,29.73
2019-01-03T17:38:57.249Z,23.60
2019-01-03T17:41:27.242Z,39.17
2019-01-03T17:43:57.349Z,28.13
2019-01-03T17:46:27.806Z,39.03
2019-01-03T17:48:58.138Z,26.40
2019-01-03T17:51:27.705Z,31.60
2019-01-03T17:53:58.095Z,29.90
2019-01-03T17:56:28.310Z,27.93
2019-01-03T17:58:58.530Z,23.00
2019-01-03T18:01:28.859Z,27.30
2019-01-03T18:04:03.806Z,27.50
2019-01-03T18:38:29.937Z,34.77
2019-01-03T18:44:59.174Z,32.80
2019-01-03T18:47:47.240Z,31.60
2019-01-03T18:50:36.704Z,32.10
2019-01-03T18:53:27.472Z,25.80
2019-01-03T18:56:07.830Z,30.07
2019-01-03T19:01:52.978Z,25.47
2019-01-03T19:04:55.287Z,26.00
2019-01-03T19:07:27.827Z,24.33
2019-01-03T19:10:03.275Z,28.30
2019-01-03T19:13:10.143Z,28.03
2019-01-03T19:15:44.867Z,26.37
2019-01-03T19:19:41.757Z,37.23
2019-01-03T19:23:11.399Z,28.23
2019-01-03T19:26:22.030Z,30.10
2019-01-03T19:30:19.955Z,30.03
2019-01-03T19:33:13.265Z,24.77
2019-01-03T19:36:37.398Z,27.17
2019-01-03T19:39:59.298Z,29.63
2019-01-03T19:42:46.885Z,30.20
2019-01-03T19:45:17.678Z,31.53
2019-01-03T19:48:04.116Z,28.07
2019-01-03T19:54:14.947Z,27.60
2019-01-03T19:57:28.452Z,27.97
2019-01-03T20:00:07.045Z,30.40
2019-01-03T20:02:39.307Z,25.70
2019-01-03T20:05:10.826Z,25.70
2019-01-03T20:12:07.279Z,26.42
2019-01-03T20:15:07.368Z,28.60
2019-01-03T20:18:07.530Z,26.73
2019-01-03T20:20:45.775Z,29.70
2019-01-03T20:23:26.985Z,30.23
2019-01-03T20:26:30.044Z,27.90
2019-01-03T20:29:35.571Z,30.60
2019-01-03T20:32:10.620Z,29.20
2019-01-03T20:35:11.388Z,29.10
2019-01-03T20:38:30.061Z,22.03
2019-01-03T20:41:09.744Z,26.10
2019-01-03T20:44:06.234Z,27.13
2019-01-03T20:46:59.261Z,32.73
2019-01-03T20:49:47.832Z,25.65
2019-01-03T20:52:54.839Z,27.57
2019-01-03T20:56:23.426Z,29.37
2019-01-03T20:58:46.188Z,27.35
2019-01-03T21:04:08.212Z,21.80
2019-01-03T21:07:02.120Z,21.57
2019-01-03T21:09:44.994Z,24.17
2019-01-03T21:12:19.344Z,27.70
2019-01-03T21:15:22.644Z,24.90
2019-01-03T21:18:23.063Z,27.67
2019-01-03T21:21:08.354Z,28.53
2019-01-03T21:24:16.905Z,26.77
2019-01-03T21:26:48.011Z,28.12
2019-01-03T21:29:22.908Z,27.20
2019-01-03T21:32:13.292Z,26.00
2019-01-03T21:34:54.276Z,27.23
2019-01-03T21:38:10.494Z,23.43
2019-01-03T21:40:47.366Z,26.50
2019-01-03T21:46:41.107Z,23.60
2019-01-03T21:49:30.063Z,25.80
2019-01-03T21:52:34.910Z,21.77
2019-01-03T21:55:12.358Z,26.63
2019-01-03T21:57:48.208Z,26.87
2019-01-03T22:00:31.156Z,27.20
2019-01-03T22:03:03.466Z,24.93
2019-01-03T22:05:36.849Z,28.73
2019-01-03T22:08:11.228Z,28.02
2019-01-03T22:10:43.611Z,25.10
2019-01-03T22:13:14.544Z,24.37
2019-01-03T22:16:02.753Z,28.50
2019-01-03T22:18:35.997Z,27.27
2019-01-03T22:21:17.970Z,29.23
2019-01-03T22:23:48.766Z,28.00
2019-01-03T22:26:33.719Z,29.32
2019-01-03T22:29:17.465Z,32.30
2019-01-03T22:31:48.181Z,28.30
2019-01-03T22:34:18.287Z,27.60
2019-01-03T22:36:52.308Z,30.37
2019-01-03T22:39:42.861Z,25.20
2019-01-03T22:42:16.692Z,29.00
2019-01-03T22:44:54.235Z,29.63
2019-01-03T22:47:31.497Z,30.20
2019-01-03T22:50:04.285Z,28.40
2019-01-03T22:52:43.210Z,29.43
2019-01-03T22:55:23.543Z,32.83
2019-01-03T22:57:57.876Z,30.00
2019-01-03T23:00:43.190Z,28.73
2019-01-03T23:03:58.858Z,32.97
2019-01-03T23:06:40.976Z,27.47
2019-01-03T23:09:13.568Z,30.07
2019-01-03T23:11:43.870Z,39.80
2019-01-03T23:14:20.782Z,31.43
2019-01-03T23:17:12.552Z,31.90
2019-01-03T23:19:50.094Z,31.73
2019-01-03T23:22:32.438Z,32.20
2019-01-03T23:25:34.157Z,30.10
2019-01-03T23:28:05.155Z,33.00
2019-01-03T23:30:37.198Z,29.67
2019-01-03T23:33:08.874Z,29.32
2019-01-03T23:35:41.957Z,30.30
2019-01-03T23:38:19.324Z,26.80
2019-01-03T23:41:11.521Z,36.63
2019-01-03T23:43:51.963Z,32.70
2019-01-03T23:46:23.501Z,33.00
2019-01-03T23:49:09.884Z,34.60
2019-01-03T23:51:41.163Z,35.60
2019-01-03T23:54:15.761Z,29.33
2019-01-03T23:56:49.036Z,32.40
